Main page
METAR-TAF:

METAR-TAF

Airports :

Alice Springs, Australia

Alice Springs Airport

latitude: 23-48S, longitude: 133-53E, elevation: 545 m

Current weather observation

The report was made 22 minutes ago, at 00:00 UTC
Wind 4 kt from the East/Northeast, varying between North/Northeast and East/Southeast
Temperature 21°C
Humidity 28%
Pressure 1021 hPa
Visibility 10 km or more

METAR: YBAS 200000Z AUTO 07004KT 030V110 9999 // NCD 21/02 Q1021 RF00.0/000.0

Time: 09:52 (00:22 UTC)

Forecast

The report was made 1 hour and 5 minutes ago, at 23:17 UTC
Forecast valid from 20 at 00 UTC to 20 at 24 UTC
Wind 6 kt from the East/Northeast
Visibility 10 km or more
no clouds below 1500 m and no cumulonimbus
From 20 at 0300 UTC
Wind 8 kt from the North/Northwest
Visibility 10 km or more
no clouds below 1500 m and no cumulonimbus
From 20 at 2300 UTC
Wind 14 kt from the North/Northwest
Visibility 10 km or more
no clouds below 1500 m and no cumulonimbus

TAF: YBAS 192317Z 2000/2024 07006KT CAVOK FM200300 33008KT CAVOK FM202300 33014KT CAVOK

Weather observations and forecasts of more than 4000 airports (METAR and TAF reports).

The available stations are represented by yellow and red dots on the map.

Hover mouse over dot to see the name of the station.

Then click to see weather observations and forecasts.

To change the map : click on the green buttons with a black cross to zoom in, on the green button with a dash to zoom out, or on the green arrows for adjacent maps.


METAR-TAF: